createdAt,value
2022-08-31T00:02:37.354Z,5.50
2022-08-31T00:08:25.311Z,4.50
2022-08-31T00:13:37.226Z,4.80
2022-08-31T00:19:09.909Z,5.50
2022-08-31T00:24:42.647Z,5.00
2022-08-31T00:30:47.083Z,4.80
2022-08-31T00:36:27.304Z,4.60
2022-08-31T00:41:48.805Z,5.00
2022-08-31T00:53:41.464Z,6.00
2022-08-31T00:59:37.480Z,5.50
2022-08-31T01:05:09.182Z,5.40
2022-08-31T01:11:13.337Z,5.40
2022-08-31T01:16:53.337Z,5.50
2022-08-31T01:23:12.161Z,5.70
2022-08-31T01:28:51.383Z,6.10
2022-08-31T01:34:49.351Z,5.20
2022-08-31T01:41:23.181Z,5.30
2022-08-31T01:46:58.124Z,4.80
2022-08-31T01:52:59.801Z,5.40
2022-08-31T01:59:24.612Z,4.50
2022-08-31T02:05:46.309Z,5.50
2022-08-31T02:11:39.741Z,5.20
2022-08-31T02:17:17.815Z,5.20
2022-08-31T02:23:13.952Z,4.70
2022-08-31T02:29:24.195Z,5.40
2022-08-31T02:35:18.151Z,4.70
2022-08-31T02:41:00.297Z,5.40
2022-08-31T02:46:19.514Z,4.70
2022-08-31T02:52:02.834Z,4.60
2022-08-31T02:57:25.163Z,4.80
2022-08-31T03:02:32.080Z,4.60
2022-08-31T03:08:31.220Z,4.50
2022-08-31T03:13:45.818Z,4.00
2022-08-31T03:19:08.234Z,3.90
2022-08-31T03:25:18.095Z,2.90
2022-08-31T03:30:31.450Z,3.10
2022-08-31T03:36:10.186Z,3.50
2022-08-31T03:41:52.072Z,4.70
2022-08-31T03:47:32.628Z,5.90
2022-08-31T03:53:11.254Z,6.00
2022-08-31T03:58:47.023Z,5.50
2022-08-31T04:04:07.216Z,4.60
2022-08-31T04:10:30.938Z,5.90
2022-08-31T04:16:09.259Z,7.90
2022-08-31T04:21:56.165Z,8.50
2022-08-31T04:27:13.137Z,7.40
2022-08-31T04:33:48.839Z,5.50
2022-08-31T04:39:05.972Z,5.60
2022-08-31T04:44:20.100Z,5.20
2022-08-31T04:49:34.186Z,4.30
2022-08-31T04:55:09.747Z,5.30
2022-08-31T05:00:53.722Z,5.90
2022-08-31T05:06:13.784Z,6.00
2022-08-31T05:11:39.861Z,6.00
2022-08-31T05:17:25.270Z,4.00
2022-08-31T05:23:26.339Z,5.80
2022-08-31T05:28:44.285Z,5.00
2022-08-31T05:34:44.574Z,5.20
2022-08-31T05:40:07.475Z,5.50
2022-08-31T05:45:58.917Z,4.20
2022-08-31T05:51:46.258Z,5.00
2022-08-31T05:58:13.723Z,3.70
2022-08-31T06:04:42.990Z,3.40
2022-08-31T06:10:05.514Z,2.90
2022-08-31T06:15:13.972Z,3.20
2022-08-31T06:20:39.596Z,3.90
2022-08-31T06:25:54.765Z,3.10
2022-08-31T06:30:56.999Z,3.60
2022-08-31T06:35:59.340Z,3.20
2022-08-31T06:41:36.361Z,4.20
2022-08-31T06:47:08.294Z,11.50
2022-08-31T06:52:20.514Z,12.90
2022-08-31T06:57:35.642Z,8.50
2022-08-31T07:03:24.875Z,6.50
2022-08-31T07:08:51.864Z,6.80
2022-08-31T07:14:00.108Z,7.90
2022-08-31T07:19:27.434Z,8.10
2022-08-31T07:24:35.423Z,7.90
2022-08-31T07:30:00.651Z,7.60
2022-08-31T07:35:15.370Z,6.10
2022-08-31T07:40:49.406Z,7.50
2022-08-31T07:45:55.594Z,6.90
2022-08-31T07:51:00.554Z,6.50
2022-08-31T07:56:21.949Z,3.90
2022-08-31T08:01:32.385Z,3.50
2022-08-31T08:06:39.478Z,3.90
2022-08-31T08:12:01.145Z,4.50
2022-08-31T08:17:50.813Z,2.80
2022-08-31T08:22:58.528Z,2.70
2022-08-31T08:28:40.274Z,4.30
2022-08-31T08:33:46.139Z,3.80
2022-08-31T08:38:57.512Z,3.50
2022-08-31T08:44:23.101Z,2.80
2022-08-31T08:50:23.074Z,2.70
2022-08-31T08:56:17.256Z,2.50
2022-08-31T09:01:30.628Z,2.70
2022-08-31T09:06:46.062Z,2.60
2022-08-31T09:12:14.048Z,1.60
2022-08-31T09:17:31.097Z,1.00
2022-08-31T09:23:01.907Z,1.00
2022-08-31T09:28:29.578Z,1.50
2022-08-31T09:33:55.851Z,1.20
2022-08-31T09:39:34.502Z,1.90
2022-08-31T09:44:43.400Z,1.00
2022-08-31T09:49:55.564Z,1.30
2022-08-31T09:55:27.831Z,1.10
2022-08-31T10:01:52.506Z,1.20
2022-08-31T10:07:42.126Z,1.00
2022-08-31T10:13:15.576Z,1.40
2022-08-31T10:18:53.100Z,1.10
2022-08-31T10:24:55.904Z,1.30
2022-08-31T10:30:30.713Z,1.70
2022-08-31T10:36:16.333Z,1.50
2022-08-31T10:41:29.039Z,1.40
2022-08-31T10:46:35.655Z,1.30
2022-08-31T10:51:46.863Z,1.20
2022-08-31T10:57:39.354Z,1.50
2022-08-31T11:03:23.262Z,1.50
2022-08-31T11:08:35.341Z,1.50
2022-08-31T11:14:07.423Z,1.10
2022-08-31T11:20:12.642Z,1.30
2022-08-31T11:25:56.098Z,0.70
2022-08-31T11:31:01.770Z,0.80
2022-08-31T11:36:12.727Z,0.90
2022-08-31T11:41:35.884Z,0.90
2022-08-31T11:46:39.800Z,0.90
2022-08-31T11:51:55.762Z,0.90
2022-08-31T11:57:15.842Z,1.00
2022-08-31T12:02:41.239Z,1.30
2022-08-31T12:07:50.684Z,1.10
2022-08-31T12:13:09.822Z,1.40
2022-08-31T12:18:43.073Z,1.30
2022-08-31T12:24:15.355Z,1.20
2022-08-31T12:29:40.412Z,1.30
2022-08-31T12:35:07.122Z,1.00
2022-08-31T12:40:34.542Z,1.00
2022-08-31T12:46:15.601Z,1.00
2022-08-31T12:52:03.476Z,1.10
2022-08-31T12:57:14.284Z,1.00
2022-08-31T13:02:38.125Z,1.10
2022-08-31T13:07:47.773Z,0.90
2022-08-31T13:12:53.535Z,1.40
2022-08-31T13:18:30.762Z,1.50
2022-08-31T13:23:46.671Z,1.00
2022-08-31T13:29:07.726Z,0.90
2022-08-31T13:34:12.372Z,0.90
2022-08-31T13:39:35.463Z,1.00
2022-08-31T13:45:19.469Z,1.30
2022-08-31T13:50:52.634Z,0.70
2022-08-31T13:56:55.021Z,0.70
2022-08-31T14:02:30.772Z,0.90
2022-08-31T14:08:07.450Z,0.90
2022-08-31T14:14:25.553Z,0.80
2022-08-31T14:20:06.863Z,0.90
2022-08-31T14:25:22.212Z,0.80
2022-08-31T14:30:35.720Z,0.80
2022-08-31T14:36:14.743Z,0.90
2022-08-31T14:41:19.321Z,0.80
2022-08-31T14:46:31.510Z,1.00
2022-08-31T14:51:42.047Z,0.60
2022-08-31T14:56:58.294Z,1.10
2022-08-31T15:02:13.825Z,1.00
2022-08-31T15:07:19.800Z,1.00
2022-08-31T15:12:22.494Z,1.30
2022-08-31T15:17:36.807Z,1.10
2022-08-31T15:22:45.137Z,1.30
2022-08-31T15:27:51.866Z,1.10
2022-08-31T15:38:36.875Z,1.30
2022-08-31T15:44:33.060Z,1.20
2022-08-31T15:50:02.719Z,1.30
2022-08-31T15:55:31.845Z,0.80
2022-08-31T16:01:09.975Z,1.00
2022-08-31T16:06:40.446Z,1.10
2022-08-31T16:12:10.452Z,0.90
2022-08-31T16:17:21.479Z,0.80
2022-08-31T16:22:33.198Z,1.20
2022-08-31T16:27:59.910Z,1.20
2022-08-31T16:33:12.418Z,1.10
2022-08-31T16:38:25.975Z,1.10
2022-08-31T16:43:30.917Z,0.80
2022-08-31T16:49:15.212Z,0.90
2022-08-31T16:55:16.122Z,1.00
2022-08-31T17:01:00.584Z,0.90
2022-08-31T17:06:05.599Z,1.10
2022-08-31T17:11:22.575Z,1.40
2022-08-31T17:17:02.924Z,1.00
2022-08-31T17:22:25.625Z,1.30
2022-08-31T17:27:59.816Z,1.00
2022-08-31T17:33:17.642Z,1.10
2022-08-31T17:38:55.223Z,1.00
2022-08-31T17:44:05.047Z,0.90
2022-08-31T17:49:25.061Z,1.40
2022-08-31T17:55:02.020Z,1.10
2022-08-31T18:00:50.789Z,1.30
2022-08-31T18:06:03.650Z,0.90
2022-08-31T18:11:34.056Z,1.10
2022-08-31T18:16:39.582Z,1.50
2022-08-31T18:22:03.750Z,1.20
2022-08-31T18:27:53.664Z,1.00
2022-08-31T18:33:37.990Z,1.20
2022-08-31T18:44:34.965Z,1.30
2022-08-31T18:50:44.692Z,2.00
2022-08-31T18:56:41.280Z,2.10
2022-08-31T19:02:33.561Z,1.50
2022-08-31T19:08:20.623Z,1.50
2022-08-31T19:13:46.677Z,1.50
2022-08-31T19:19:16.902Z,1.40
2022-08-31T19:24:40.851Z,1.60
2022-08-31T19:30:33.507Z,1.60
2022-08-31T19:36:26.573Z,1.40
2022-08-31T19:42:16.496Z,1.60
2022-08-31T19:48:01.285Z,2.00
2022-08-31T19:53:50.897Z,1.80
2022-08-31T19:59:21.202Z,1.90
2022-08-31T20:04:42.547Z,1.90
2022-08-31T20:09:54.611Z,1.90
2022-08-31T20:14:56.700Z,2.00
2022-08-31T20:20:57.545Z,2.00
2022-08-31T20:26:52.709Z,2.40
2022-08-31T20:32:19.222Z,2.70
2022-08-31T20:38:06.533Z,2.20
2022-08-31T20:43:39.916Z,2.30
2022-08-31T20:49:26.608Z,2.40
2022-08-31T20:56:17.947Z,2.50
2022-08-31T21:02:09.919Z,2.40
2022-08-31T21:07:57.523Z,2.00
2022-08-31T21:13:37.455Z,2.30
2022-08-31T21:19:52.914Z,2.90
2022-08-31T21:26:39.541Z,3.00
2022-08-31T21:32:53.073Z,2.10
2022-08-31T21:39:13.882Z,2.60
2022-08-31T21:45:18.847Z,1.90
2022-08-31T21:51:15.096Z,2.00
2022-08-31T21:57:57.174Z,2.10
2022-08-31T22:04:40.677Z,2.20
2022-08-31T22:11:01.357Z,2.30
2022-08-31T22:18:04.778Z,2.60
2022-08-31T22:24:29.933Z,3.00
2022-08-31T22:31:03.364Z,2.50
2022-08-31T22:37:49.598Z,2.30
2022-08-31T22:44:29.840Z,2.70
2022-08-31T22:50:25.823Z,2.80
2022-08-31T22:56:49.899Z,3.10
2022-08-31T23:02:52.577Z,2.70
2022-08-31T23:09:44.106Z,3.60
2022-08-31T23:15:46.673Z,3.30
2022-08-31T23:22:28.718Z,3.40
2022-08-31T23:28:49.690Z,2.60
2022-08-31T23:35:16.912Z,3.30
2022-08-31T23:42:02.545Z,3.40
2022-08-31T23:48:08.163Z,2.50
2022-08-31T23:53:50.925Z,3.10
